エカテリンブルク の空港の天気 - METARとTAF

コルツォヴォ空港 ( USSS / SVX ) - ロシア エカテリンブルク
飛行場実況気象(Metar)
観測時間07/28 17:30 YEKT (07/28 12:30 UTC)
風向・風速西北西 3m/s
視程10km以上
天気現象
全天の8割程度の雲 雲底高度 1520m
気温25℃
湿度61%
気圧1010hPa
METARUSSS 281230Z 30003MPS 270V340 9999 BKN050CB 25/17 Q1010 R26R/010060 NOSIG RMK QFE737/0983
過去の天気等 Google飛行場航空写真 Wunderground天気予報

過去48時間のMETAR

飛行場予報(TAF)
発表時間: 7/28 16:54 YEKT (7/28 11:54 UTC)
予報対象時間: 28日17時 YEKT ~ 29日17時 YEKT
風向・風速西 6m/s
視程10km以上
全天の8割程度の積乱雲 雲底高度 610m
28日17時 YEKT ~ 29日5時 YEKT に一時的に
風向・風速不定 17m/s
天気現象弱い雷雨
TAF AMD USSS 281154Z 2812/2912 26006MPS 9999 BKN020CB
TEMPO 2812/2824 VRB17MPS -TSRA